createdAt,value
2022-09-23T00:02:02.997Z,101619.19
2022-09-23T00:04:31.891Z,101621.78
2022-09-23T00:07:00.059Z,101617.47
2022-09-23T00:09:28.949Z,101620.03
2022-09-23T00:11:59.405Z,101623.47
2022-09-23T00:14:31.647Z,101612.28
2022-09-23T00:17:01.367Z,101620.88
2022-09-23T00:19:31.014Z,101604.50
2022-09-23T00:21:59.976Z,101621.78
2022-09-23T00:24:33.436Z,101610.56
2022-09-23T00:27:03.864Z,101607.97
2022-09-23T00:29:33.788Z,101607.94
2022-09-23T00:32:02.594Z,101611.38
2022-09-23T00:34:29.913Z,101610.53
2022-09-23T00:36:58.961Z,101599.31
2022-09-23T00:39:28.543Z,101603.63
2022-09-23T00:42:04.731Z,101602.78
2022-09-23T00:44:53.184Z,101604.53
2022-09-23T00:48:10.956Z,101599.34
2022-09-23T00:50:56.299Z,101606.22
2022-09-23T00:53:26.883Z,101598.47
2022-09-23T00:56:04.925Z,101587.25
2022-09-23T00:58:42.647Z,101586.41
2022-09-23T01:01:09.885Z,101600.19
2022-09-23T01:03:39.628Z,101599.34
2022-09-23T01:06:07.804Z,101595.84
2022-09-23T01:08:35.867Z,101596.72
2022-09-23T01:11:39.016Z,101595.88
2022-09-23T01:14:22.758Z,101591.56
2022-09-23T01:17:04.755Z,101591.56
2022-09-23T01:20:21.523Z,101578.59
2022-09-23T01:23:14.349Z,101582.88
2022-09-23T01:26:14.268Z,101576.88
2022-09-23T01:29:24.437Z,101582.03
2022-09-23T01:32:34.153Z,101578.59
2022-09-23T01:35:21.075Z,101564.78
2022-09-23T01:38:48.517Z,101577.72
2022-09-23T01:42:07.964Z,101574.28
2022-09-23T01:45:16.364Z,101569.94
2022-09-23T01:48:03.697Z,101573.41
2022-09-23T01:50:57.938Z,101572.53
2022-09-23T01:53:40.374Z,101576.88
2022-09-23T01:56:31.839Z,101570.81
2022-09-23T01:59:20.735Z,101572.53
2022-09-23T02:02:06.010Z,101565.63
2022-09-23T02:04:57.564Z,101566.47
2022-09-23T02:08:01.635Z,101561.31
2022-09-23T02:10:37.308Z,101557.00
2022-09-23T02:13:19.522Z,101557.00
2022-09-23T02:16:03.203Z,101555.25
2022-09-23T02:18:42.175Z,101548.34
2022-09-23T02:21:34.359Z,101547.47
2022-09-23T02:24:37.058Z,101552.66
2022-09-23T02:27:35.735Z,101552.69
2022-09-23T02:30:31.948Z,101550.97
2022-09-23T02:33:17.259Z,101546.69
2022-09-23T02:35:58.794Z,101542.41
2022-09-23T02:38:59.426Z,101549.25
2022-09-23T02:42:07.524Z,101550.16
2022-09-23T02:44:39.095Z,101543.22
2022-09-23T02:47:18.440Z,101538.03
2022-09-23T02:49:45.401Z,101533.72
2022-09-23T02:52:21.976Z,101533.75
2022-09-23T02:54:51.161Z,101535.47
2022-09-23T02:57:21.546Z,101526.84
2022-09-23T02:59:53.262Z,101526.00
2022-09-23T03:02:50.954Z,101527.72
2022-09-23T03:05:34.421Z,101531.16
2022-09-23T03:08:05.996Z,101514.84
2022-09-23T03:11:22.655Z,101525.97
2022-09-23T03:14:26.755Z,101520.81
2022-09-23T03:17:32.828Z,101523.38
2022-09-23T03:20:25.329Z,101508.72
2022-09-23T03:23:27.121Z,101507.81
2022-09-23T03:25:59.801Z,101505.22
2022-09-23T03:28:35.170Z,101509.56
2022-09-23T03:31:06.612Z,101511.31
2022-09-23T03:33:45.385Z,101512.16
2022-09-23T03:36:54.200Z,101512.16
2022-09-23T03:39:58.229Z,101510.41
2022-09-23T03:45:48.963Z,101510.41
2022-09-23T03:48:23.031Z,101508.72
2022-09-23T03:50:53.780Z,101514.75
2022-09-23T03:53:25.608Z,101504.38
2022-09-23T03:55:52.659Z,101504.38
2022-09-23T03:58:23.221Z,101504.41
2022-09-23T04:00:57.231Z,101498.38
2022-09-23T04:03:45.922Z,101494.03
2022-09-23T04:06:13.130Z,101489.72
2022-09-23T04:08:42.131Z,101485.44
2022-09-23T04:11:09.184Z,101481.97
2022-09-23T04:13:45.265Z,101478.53
2022-09-23T04:16:18.474Z,101472.53
2022-09-23T04:18:45.401Z,101481.16
2022-09-23T04:21:18.722Z,101466.50
2022-09-23T04:23:51.019Z,101477.75
2022-09-23T04:26:37.105Z,101470.81
2022-09-23T04:29:09.359Z,101473.41
2022-09-23T04:31:39.754Z,101463.94
2022-09-23T04:34:10.397Z,101463.94
2022-09-23T04:36:37.729Z,101463.06
2022-09-23T04:39:04.947Z,101457.91
2022-09-23T04:41:32.008Z,101450.19
2022-09-23T04:43:58.949Z,101443.28
2022-09-23T04:46:25.865Z,101451.03
2022-09-23T04:48:52.820Z,101442.41
2022-09-23T04:51:22.359Z,101456.25
2022-09-23T04:53:50.706Z,101447.66
2022-09-23T04:56:23.667Z,101447.66
2022-09-23T04:58:51.131Z,101447.66
2022-09-23T05:01:19.534Z,101452.00
2022-09-23T05:03:46.825Z,101457.19
2022-09-23T05:06:14.748Z,101465.78
2022-09-23T05:08:47.414Z,101460.59
2022-09-23T05:11:14.201Z,101458.88
2022-09-23T05:13:41.095Z,101453.72
2022-09-23T05:16:14.654Z,101449.38
2022-09-23T05:18:43.449Z,101454.53
2022-09-23T05:21:11.738Z,101464.06
2022-09-23T05:23:40.582Z,101467.50
2022-09-23T05:26:10.259Z,101462.34
2022-09-23T05:28:39.405Z,101472.69
2022-09-23T05:31:19.776Z,101468.38
2022-09-23T05:33:53.639Z,101470.09
2022-09-23T05:36:24.273Z,101461.47
2022-09-23T05:38:52.639Z,101472.69
2022-09-23T05:41:23.034Z,101470.09
2022-09-23T05:43:54.931Z,101470.97
2022-09-23T05:46:24.190Z,101467.50
2022-09-23T05:48:51.595Z,101464.94
2022-09-23T05:51:20.561Z,101466.66
2022-09-23T05:53:48.361Z,101465.78
2022-09-23T05:56:17.488Z,101466.66
2022-09-23T05:58:45.165Z,101468.38
2022-09-23T06:01:13.878Z,101470.97
2022-09-23T06:03:41.161Z,101477.88
2022-09-23T06:06:11.419Z,101473.56
2022-09-23T06:08:38.288Z,101476.13
2022-09-23T06:11:09.219Z,101470.97
2022-09-23T06:13:39.949Z,101473.53
2022-09-23T06:16:08.496Z,101483.06
2022-09-23T06:18:37.918Z,101474.44
2022-09-23T06:21:05.192Z,101470.97
2022-09-23T06:23:32.654Z,101467.53
2022-09-23T06:26:04.941Z,101468.38
2022-09-23T06:28:33.873Z,101468.38
2022-09-23T06:31:03.472Z,101464.91
2022-09-23T06:33:36.474Z,101465.78
2022-09-23T06:36:06.268Z,101461.44
2022-09-23T06:38:36.558Z,101464.06
2022-09-23T06:41:03.447Z,101465.75
2022-09-23T06:43:31.123Z,101464.91
2022-09-23T06:46:00.446Z,101470.09
2022-09-23T06:48:28.719Z,101468.31
2022-09-23T06:50:59.985Z,101466.59
2022-09-23T06:53:26.912Z,101470.03
2022-09-23T06:56:06.955Z,101467.44
2022-09-23T06:58:35.710Z,101467.41
2022-09-23T07:01:07.423Z,101463.06
2022-09-23T07:03:35.359Z,101475.13
2022-09-23T07:06:02.719Z,101468.16
2022-09-23T07:08:30.905Z,101463.84
2022-09-23T07:10:59.769Z,101469.84
2022-09-23T07:13:27.477Z,101475.88
2022-09-23T07:15:58.537Z,101471.50
2022-09-23T07:18:26.782Z,101479.25
2022-09-23T07:20:58.869Z,101476.63
2022-09-23T07:23:25.930Z,101478.34
2022-09-23T07:25:52.907Z,101480.91
2022-09-23T07:28:20.563Z,101473.94
2022-09-23T07:30:58.674Z,101474.81
2022-09-23T07:33:33.060Z,101473.00
2022-09-23T07:36:05.597Z,101477.28
2022-09-23T07:38:32.564Z,101473.78
2022-09-23T07:41:08.121Z,101476.31
2022-09-23T07:43:35.429Z,101475.44
2022-09-23T07:46:08.303Z,101479.72
2022-09-23T07:48:36.025Z,101473.63
2022-09-23T07:51:11.701Z,101473.56
2022-09-23T07:53:38.991Z,101476.97
2022-09-23T07:56:06.675Z,101481.28
2022-09-23T07:58:35.028Z,101482.09
2022-09-23T08:01:07.167Z,101482.06
2022-09-23T08:03:35.085Z,101475.13
2022-09-23T08:06:09.323Z,101475.91
2022-09-23T08:08:40.453Z,101482.78
2022-09-23T08:11:10.318Z,101484.47
2022-09-23T08:13:37.383Z,101480.09
2022-09-23T08:16:04.557Z,101472.31
2022-09-23T08:18:31.561Z,101482.59
2022-09-23T08:20:58.524Z,101476.53
2022-09-23T08:23:25.998Z,101478.16
2022-09-23T08:26:02.211Z,101476.34
2022-09-23T08:28:29.144Z,101475.44
2022-09-23T08:30:56.129Z,101471.06
2022-09-23T08:33:23.975Z,101472.72
2022-09-23T08:35:52.593Z,101470.91
2022-09-23T08:38:20.472Z,101471.69
2022-09-23T08:40:49.666Z,101469.91
2022-09-23T08:43:27.466Z,101460.34
2022-09-23T08:45:57.348Z,101474.09
2022-09-23T08:48:38.627Z,101471.47
2022-09-23T08:51:22.142Z,101473.13
2022-09-23T08:53:49.428Z,101472.19
2022-09-23T08:56:19.775Z,101469.53
2022-09-23T08:58:46.659Z,101460.94
2022-09-23T09:01:43.725Z,101466.84
2022-09-23T09:04:18.992Z,101468.53
2022-09-23T09:07:12.361Z,101464.97
2022-09-23T09:09:51.847Z,101459.75
2022-09-23T09:12:37.348Z,101464.00
2022-09-23T09:15:13.703Z,101471.72
2022-09-23T09:17:40.899Z,101462.13
2022-09-23T09:20:19.444Z,101465.56
2022-09-23T09:22:57.643Z,101461.13
2022-09-23T09:25:45.061Z,101455.06
2022-09-23T09:28:24.583Z,101443.59
2022-09-23T09:30:56.502Z,101450.41
2022-09-23T09:33:35.141Z,101443.38
2022-09-23T09:36:26.622Z,101436.34
2022-09-23T09:38:53.570Z,101436.28
2022-09-23T09:41:24.587Z,101434.41
2022-09-23T09:44:00.108Z,101427.38
2022-09-23T09:46:46.931Z,101435.06
2022-09-23T09:49:29.831Z,101435.81
2022-09-23T09:52:16.808Z,101437.38
2022-09-23T09:54:44.417Z,101435.50
2022-09-23T09:57:35.140Z,101427.56
2022-09-23T10:00:21.943Z,101423.97
2022-09-23T10:03:15.209Z,101429.91
2022-09-23T10:05:45.201Z,101415.88
2022-09-23T10:08:24.823Z,101418.34
2022-09-23T10:11:02.692Z,101424.22
2022-09-23T10:13:31.114Z,101421.47
2022-09-23T10:16:00.588Z,101414.44
2022-09-23T10:18:32.050Z,101420.41
2022-09-23T10:21:08.175Z,101417.66
2022-09-23T10:23:40.497Z,101416.78
2022-09-23T10:26:08.269Z,101418.34
2022-09-23T10:28:38.022Z,101423.41
2022-09-23T10:31:17.794Z,101418.94
2022-09-23T10:33:51.774Z,101415.34
2022-09-23T10:36:18.889Z,101413.50
2022-09-23T10:38:50.616Z,101406.41
2022-09-23T10:41:45.774Z,101409.75
2022-09-23T10:44:46.925Z,101403.47
2022-09-23T10:47:35.034Z,101405.06
2022-09-23T10:50:32.406Z,101403.13
2022-09-23T10:52:59.171Z,101396.03
2022-09-23T10:55:50.930Z,101399.34
2022-09-23T10:58:26.995Z,101390.44
2022-09-23T11:01:21.764Z,101400.72
2022-09-23T11:03:51.619Z,101392.75
2022-09-23T11:06:35.578Z,101392.59
2022-09-23T11:09:21.081Z,101390.66
2022-09-23T11:11:47.972Z,101384.50
2022-09-23T11:14:20.181Z,101380.78
2022-09-23T11:17:07.564Z,101381.53
2022-09-23T11:20:18.080Z,101386.50
2022-09-23T11:22:57.322Z,101380.31
2022-09-23T11:25:38.827Z,101374.84
2022-09-23T11:28:20.886Z,101366.91
2022-09-23T11:31:32.369Z,101363.22
2022-09-23T11:34:40.496Z,101367.41
2022-09-23T11:37:14.406Z,101356.81
2022-09-23T11:39:51.177Z,101354.91
2022-09-23T11:42:26.329Z,101360.84
2022-09-23T11:45:19.069Z,101363.25
2022-09-23T11:47:54.606Z,101349.09
2022-09-23T11:50:41.890Z,101352.44
2022-09-23T11:53:35.523Z,101347.97
2022-09-23T11:56:10.056Z,101345.16
2022-09-23T11:59:03.016Z,101340.69
2022-09-23T12:01:41.038Z,101337.84
2022-09-23T12:04:51.652Z,101334.19
2022-09-23T12:07:39.604Z,101331.47
2022-09-23T12:10:08.650Z,101329.56
2022-09-23T12:13:01.903Z,101327.69
2022-09-23T12:15:44.938Z,101321.44
2022-09-23T12:18:15.934Z,101314.31
2022-09-23T12:21:38.748Z,101315.88
2022-09-23T12:24:19.248Z,101312.34
2022-09-23T12:26:53.425Z,101312.25
2022-09-23T12:29:20.898Z,101309.53
2022-09-23T12:31:48.225Z,101318.13
2022-09-23T12:34:47.977Z,101315.41
2022-09-23T12:37:24.378Z,101311.88
2022-09-23T12:39:51.460Z,101310.09
2022-09-23T12:42:21.166Z,101314.31
2022-09-23T12:44:49.023Z,101309.97
2022-09-23T12:47:21.307Z,101309.03
2022-09-23T12:49:49.584Z,101312.47
2022-09-23T12:52:16.447Z,101311.53
2022-09-23T12:54:45.916Z,101311.47
2022-09-23T12:57:31.871Z,101304.53
2022-09-23T13:00:26.453Z,101307.06
2022-09-23T13:03:18.021Z,101311.34
2022-09-23T13:06:06.488Z,101309.56
2022-09-23T13:08:38.167Z,101310.41
2022-09-23T13:11:14.857Z,101298.16
2022-09-23T13:13:44.808Z,101294.66
2022-09-23T13:16:25.458Z,101298.13
2022-09-23T13:19:01.322Z,101293.66
2022-09-23T13:21:43.554Z,101298.91
2022-09-23T13:24:13.143Z,101297.16
2022-09-23T13:26:45.734Z,101293.66
2022-09-23T13:29:28.585Z,101287.56
2022-09-23T13:31:57.943Z,101287.50
2022-09-23T13:34:31.400Z,101291.84
2022-09-23T13:36:58.899Z,101290.97
2022-09-23T13:39:27.550Z,101289.22
2022-09-23T13:42:02.971Z,101277.97
2022-09-23T13:44:30.308Z,101282.28
2022-09-23T13:47:00.006Z,101288.31
2022-09-23T13:49:32.340Z,101279.66
2022-09-23T13:51:59.764Z,101278.81
2022-09-23T13:54:31.086Z,101276.19
2022-09-23T13:56:58.551Z,101279.66
2022-09-23T13:59:41.888Z,101280.50
2022-09-23T14:02:13.013Z,101272.72
2022-09-23T14:04:40.141Z,101276.16
2022-09-23T14:07:08.894Z,101273.53
2022-09-23T14:09:37.750Z,101260.44
2022-09-23T14:12:06.641Z,101263.91
2022-09-23T14:14:37.079Z,101259.53
2022-09-23T14:17:06.781Z,101259.53
2022-09-23T14:19:35.917Z,101256.91
2022-09-23T14:22:11.678Z,101253.44
2022-09-23T14:24:39.382Z,101250.88
2022-09-23T14:27:17.778Z,101243.84
2022-09-23T14:29:47.529Z,101250.84
2022-09-23T14:32:21.245Z,101242.91
2022-09-23T14:34:59.933Z,101242.06
2022-09-23T14:37:48.796Z,101241.13
2022-09-23T14:40:28.154Z,101240.28
2022-09-23T14:43:03.779Z,101240.28
2022-09-23T14:45:34.695Z,101231.59
2022-09-23T14:48:08.864Z,101230.66
2022-09-23T14:50:36.859Z,101234.16
2022-09-23T14:53:05.076Z,101236.81
2022-09-23T14:55:31.995Z,101224.72
2022-09-23T14:58:06.082Z,101220.28
2022-09-23T15:00:33.139Z,101220.28
2022-09-23T15:03:12.977Z,101218.59
2022-09-23T15:05:44.407Z,101213.41
2022-09-23T15:08:16.709Z,101215.16
2022-09-23T15:10:44.388Z,101212.56
2022-09-23T15:13:33.515Z,101211.66
2022-09-23T15:16:01.926Z,101201.38
2022-09-23T15:18:41.256Z,101209.09
2022-09-23T15:21:14.666Z,101208.31
2022-09-23T15:23:44.617Z,101198.75
2022-09-23T15:26:15.623Z,101204.91
2022-09-23T15:28:43.649Z,101216.28
2022-09-23T15:31:15.087Z,101207.63
2022-09-23T15:33:44.160Z,101213.72
2022-09-23T15:36:21.639Z,101210.31
2022-09-23T15:38:49.309Z,101208.69
2022-09-23T15:41:17.547Z,101203.44
2022-09-23T15:43:44.634Z,101202.72
2022-09-23T15:46:19.562Z,101203.56
2022-09-23T15:48:58.819Z,101208.00
2022-09-23T15:51:27.439Z,101204.53
2022-09-23T15:53:55.292Z,101198.56
2022-09-23T15:56:24.541Z,101202.94
2022-09-23T15:58:51.437Z,101208.22
2022-09-23T16:01:28.327Z,101205.72
2022-09-23T16:03:55.776Z,101202.25
2022-09-23T16:06:24.306Z,101203.28
2022-09-23T16:08:52.310Z,101209.38
2022-09-23T16:11:24.331Z,101205.94
2022-09-23T16:13:51.266Z,101204.38
2022-09-23T16:16:21.668Z,101208.63
2022-09-23T16:18:50.812Z,101207.75
2022-09-23T16:21:24.641Z,101209.59
2022-09-23T16:23:53.445Z,101209.63
2022-09-23T16:26:30.340Z,101199.41
2022-09-23T16:28:58.353Z,101202.84
2022-09-23T16:31:26.708Z,101199.47
2022-09-23T16:33:54.134Z,101196.97
2022-09-23T16:36:37.159Z,101199.72
2022-09-23T16:39:07.776Z,101203.31
2022-09-23T16:41:34.919Z,101204.31
2022-09-23T16:44:04.520Z,101207.88
2022-09-23T16:46:31.781Z,101207.13
2022-09-23T16:49:00.510Z,101208.94
2022-09-23T16:51:38.296Z,101204.66
2022-09-23T16:54:11.747Z,101213.44
2022-09-23T16:56:44.496Z,101213.53
2022-09-23T16:59:15.445Z,101210.13
2022-09-23T17:02:01.290Z,101205.06
2022-09-23T17:04:28.454Z,101208.53
2022-09-23T17:06:56.443Z,101202.50
2022-09-23T17:09:29.117Z,101210.44
2022-09-23T17:12:20.428Z,101210.44
2022-09-23T17:14:47.440Z,101203.50
2022-09-23T17:17:14.403Z,101202.78
2022-09-23T17:19:41.437Z,101201.13
2022-09-23T17:22:08.424Z,101202.03
2022-09-23T17:24:35.421Z,101185.72
2022-09-23T17:27:02.959Z,101187.53
2022-09-23T17:29:30.336Z,101188.53
2022-09-23T17:31:57.891Z,101185.13
2022-09-23T17:34:25.141Z,101193.88
2022-09-23T17:36:52.007Z,101192.22
2022-09-23T17:39:18.843Z,101187.94
2022-09-23T17:41:45.726Z,101182.03
2022-09-23T17:44:12.834Z,101186.34
2022-09-23T17:46:39.599Z,101182.94
2022-09-23T17:49:06.853Z,101181.22
2022-09-23T17:51:33.786Z,101183.13
2022-09-23T17:54:00.719Z,101184.97
2022-09-23T17:56:30.067Z,101190.22
2022-09-23T17:59:01.083Z,101189.47
2022-09-23T18:01:28.379Z,101193.94
2022-09-23T18:03:56.902Z,101188.81
2022-09-23T18:06:26.055Z,101188.94
2022-09-23T18:08:53.085Z,101179.53
2022-09-23T18:11:25.923Z,101180.44
2022-09-23T18:14:00.042Z,101187.47
2022-09-23T18:16:35.063Z,101178.03
2022-09-23T18:19:03.773Z,101171.97
2022-09-23T18:21:33.111Z,101173.78
2022-09-23T18:24:21.670Z,101177.47
2022-09-23T18:26:49.695Z,101175.72
2022-09-23T18:29:16.983Z,101183.66
2022-09-23T18:31:45.064Z,101197.63
2022-09-23T18:34:16.924Z,101190.81
2022-09-23T18:36:44.518Z,101194.38
2022-09-23T18:39:11.601Z,101189.22
2022-09-23T18:41:38.723Z,101186.84
2022-09-23T18:44:05.792Z,101191.19
2022-09-23T18:46:32.735Z,101190.31
2022-09-23T18:49:18.591Z,101194.75
2022-09-23T18:51:54.517Z,101194.81
2022-09-23T18:54:27.789Z,101205.34
2022-09-23T18:56:55.511Z,101193.41
2022-09-23T18:59:25.882Z,101205.47
2022-09-23T19:01:55.464Z,101202.09
2022-09-23T19:04:24.773Z,101211.75
2022-09-23T19:06:52.105Z,101199.66
2022-09-23T19:09:19.474Z,101207.50
2022-09-23T19:11:46.398Z,101201.59
2022-09-23T19:14:13.748Z,101203.31
2022-09-23T19:16:41.786Z,101202.53
2022-09-23T19:19:08.935Z,101201.69
2022-09-23T19:21:37.228Z,101207.00
2022-09-23T19:24:06.586Z,101202.72
2022-09-23T19:26:39.836Z,101201.94
2022-09-23T19:29:09.020Z,101212.41
2022-09-23T19:31:40.473Z,101206.41
2022-09-23T19:34:23.849Z,101210.78
2022-09-23T19:36:51.515Z,101198.84
2022-09-23T19:39:23.503Z,101197.88
2022-09-23T19:41:52.314Z,101199.69
2022-09-23T19:44:22.384Z,101208.44
2022-09-23T19:46:55.178Z,101198.09
2022-09-23T19:49:23.980Z,101194.66
2022-09-23T19:51:50.950Z,101189.53
2022-09-23T19:54:20.959Z,101193.88
2022-09-23T19:56:49.756Z,101190.41
2022-09-23T19:59:19.103Z,101182.66
2022-09-23T20:01:48.071Z,101180.13
2022-09-23T20:04:16.270Z,101182.75
2022-09-23T20:06:43.503Z,101171.63
2022-09-23T20:09:10.450Z,101169.81
2022-09-23T20:11:37.387Z,101169.88
2022-09-23T20:14:06.259Z,101166.41
2022-09-23T20:16:35.842Z,101168.19
2022-09-23T20:19:04.452Z,101168.28
2022-09-23T20:21:33.459Z,101169.13
2022-09-23T20:24:02.050Z,101170.06
2022-09-23T20:26:47.708Z,101169.22
2022-09-23T20:29:14.524Z,101169.28
2022-09-23T20:31:41.921Z,101160.69
2022-09-23T20:34:12.087Z,101162.50
2022-09-23T20:36:44.411Z,101163.34
2022-09-23T20:39:14.467Z,101165.09
2022-09-23T20:41:48.343Z,101173.72
2022-09-23T20:44:17.654Z,101169.34
2022-09-23T20:46:57.686Z,101172.09
2022-09-23T20:49:24.810Z,101157.38
2022-09-23T20:51:53.960Z,101160.84
2022-09-23T20:54:22.099Z,101166.97
2022-09-23T20:56:53.549Z,101163.47
2022-09-23T20:59:25.298Z,101161.75
2022-09-23T21:02:00.640Z,101152.28
2022-09-23T21:04:32.511Z,101147.91
2022-09-23T21:07:02.768Z,101155.78
2022-09-23T21:09:33.593Z,101147.97
2022-09-23T21:12:01.519Z,101141.84
2022-09-23T21:14:29.295Z,101150.59
2022-09-23T21:17:00.037Z,101147.13
2022-09-23T21:19:30.147Z,101155.88
2022-09-23T21:21:58.406Z,101150.66
2022-09-23T21:27:15.734Z,101144.59
2022-09-23T21:29:45.174Z,101148.94
2022-09-23T21:32:13.476Z,101141.25
2022-09-23T21:34:41.606Z,101136.88
2022-09-23T21:37:09.757Z,101127.56
2022-09-23T21:39:38.000Z,101142.16
2022-09-23T21:42:09.860Z,101147.28
2022-09-23T21:44:39.217Z,101138.75
2022-09-23T21:47:08.464Z,101146.47
2022-09-23T21:49:37.056Z,101143.03
2022-09-23T21:52:05.392Z,101142.19
2022-09-23T21:54:37.970Z,101135.31
2022-09-23T21:57:07.851Z,101147.38
2022-09-23T21:59:37.950Z,101141.34
2022-09-23T22:02:04.995Z,101143.09
2022-09-23T22:04:32.464Z,101154.34
2022-09-23T22:07:02.663Z,101139.75
2022-09-23T22:09:31.030Z,101145.69
2022-09-23T22:12:08.850Z,101147.53
2022-09-23T22:14:36.052Z,101150.91
2022-09-23T22:17:04.761Z,101156.97
2022-09-23T22:19:37.174Z,101155.28
2022-09-23T22:22:14.224Z,101156.06
2022-09-23T22:24:49.258Z,101155.19
2022-09-23T22:27:19.606Z,101149.97
2022-09-23T22:30:05.954Z,101151.63
2022-09-23T22:32:42.057Z,101145.72
2022-09-23T22:35:22.412Z,101149.09
2022-09-23T22:37:49.448Z,101146.66
2022-09-23T22:40:18.805Z,101154.38
2022-09-23T22:45:27.015Z,101161.34
2022-09-23T22:48:04.065Z,101155.28
2022-09-23T22:50:43.343Z,101152.66
2022-09-23T22:53:18.754Z,101156.19
2022-09-23T22:55:46.269Z,101148.38
2022-09-23T22:58:31.277Z,101148.47
2022-09-23T23:01:00.720Z,101157.13
2022-09-23T23:03:37.829Z,101152.78
2022-09-23T23:06:07.060Z,101145.00
2022-09-23T23:08:37.144Z,101151.91
2022-09-23T23:11:13.573Z,101142.41
2022-09-23T23:13:41.953Z,101146.78
2022-09-23T23:16:15.842Z,101146.75
2022-09-23T23:18:46.045Z,101143.28
2022-09-23T23:21:16.236Z,101129.63
2022-09-23T23:23:48.773Z,101137.22
2022-09-23T23:29:10.683Z,101130.31
2022-09-23T23:31:40.202Z,101119.13
2022-09-23T23:34:16.312Z,101126.03
2022-09-23T23:36:52.883Z,101130.31
2022-09-23T23:39:26.828Z,101125.13
2022-09-23T23:41:55.477Z,101122.53
2022-09-23T23:44:25.139Z,101122.63
2022-09-23T23:47:13.917Z,101126.03
2022-09-23T23:49:43.218Z,101123.44
2022-09-23T23:52:11.725Z,101120.84
2022-09-23T23:54:38.920Z,101116.66
2022-09-23T23:57:07.264Z,101120.00
2022-09-23T23:59:35.361Z,101119.13
